Logo AVAMET
Benvolgut visitant, si us plau, ingressa Recuperar contrasenya
AVAMET paisatges

Xàbia Montgó/Toscamar

Dades diàries. Acumulats / Últims 30 dies disponibles

Data Temperatura (°C) Humitat rel. (%) Pressió rel. (hPa) Vent (km/h) Precipitació
Mínima Mitjana Màxima Amplitud
tèrmica
Mínima Mitjana Màxima Mínima Mitjana Màxima Predom. Mitjana Ràfega
màxima
Total
(mm)
Índex-n
Mínima Mitjana Màxima Mínima Mitjana Màxima n
0 a 1
P0 max
mm 5'
Dades mensuals acumulades fins l'últim dia disponible
07/2020 20,4 22,0 23,5 25,5 26,4 29,5 32,5 12,1 31 71 89 1.009 1.016 1.022   5,3 49,9 0,0
Dades anuals acumulades fins l'últim dia disponible
2020 5,5 13,5 23,5 17,0 11,6 21,1 32,5 27,0 16 70 96 1.002 1.019 1.035   5,2 82,1 366,2
Últims 30 dies disponibles
06-07-2020 20,4     26,2     31,3 10,9 31 57 84 1.014 1.016 1.017 NE 3,1 22,5 0,0
05-07-2020 20,5     24,8     28,3 7,8 47 67 84 1.017 1.019 1.021 NE 4,3 25,7 0,0
04-07-2020 22,3     24,2     27,0 4,7 66 79 89 1.019 1.020 1.022 NE 4,2 22,5 0,0
03-07-2020 22,8     24,6     26,4 3,6 73 81 86 1.014 1.017 1.020 NE 7,1 33,8 0,0
02-07-2020 23,5     26,0     31,3 7,8 57 78 87 1.010 1.012 1.014 NE 8,0 49,9 0,0
01-07-2020 22,6     27,4     32,5 9,9 34 67 88 1.009 1.011 1.012 NE 5,3 40,2 0,0
30-06-2020 22,1     25,3     30,7 8,6 44 72 89 1.009 1.013 1.016 NE 7,1 41,8 0,0
29-06-2020 20,9     25,1     29,9 9,0 23 71 91 1.013 1.016 1.017 NE 4,2 25,7 0,0
28-06-2020 20,2     24,7     28,4 8,2 54 73 90 1.015 1.016 1.018 NE 4,0 24,1 0,0
27-06-2020 21,1     24,8     29,2 8,1 62 75 88 1.013 1.014 1.016 NE 4,2 22,5 0,0
26-06-2020 20,6     25,0     30,4 9,8 32 63 86 1.011 1.014 1.016 NE 6,0 33,8 0,0
25-06-2020 20,8     25,4     31,6 10,8 25 61 89 1.013 1.015 1.018 NE 7,6 37,0 0,0
24-06-2020 19,2     23,7     27,7 8,5 46 66 81 1.015 1.017 1.018 NE 3,7 30,6 0,0
23-06-2020 21,7     24,4     28,1 6,4 49 62 77 1.016 1.018 1.020 NE 5,3 24,1 0,0
22-06-2020 20,2     24,2     29,2 9,0 37 68 91 1.019 1.021 1.022 NE 4,0 25,7 0,0
21-06-2020 18,7     23,6     28,4 9,7 61 76 89 1.019 1.020 1.022 NE 2,7 24,1 0,0
20-06-2020 18,2     23,1     27,7 9,5 57 74 91 1.018 1.020 1.021 NE 2,7 22,5 0,0
19-06-2020 19,9     21,9     25,3 5,4 69 81 89 1.016 1.018 1.020 NE 2,9 25,7 1,6
18-06-2020 18,1     21,3     25,7 7,6 61 82 94 1.013 1.014 1.016 NE 2,9 27,4 0,2
17-06-2020 18,9     21,1     24,9 6,0 70 84 93 1.013 1.015 1.016 NE 3,1 25,7 4,4
16-06-2020 18,7     21,5     27,2 8,5 59 77 88 1.015 1.016 1.018 NE 5,1 48,3 0,0
15-06-2020 18,4     23,8     28,4 10,0 28 49 73 1.017 1.018 1.020 NE 4,3 27,4 0,0
14-06-2020 16,8     22,3     26,5 9,7 32 58 81 1.016 1.017 1.018 NE 3,2 24,1 0,0
13-06-2020 18,9     22,7     26,4 7,5 33 42 50 1.009 1.013 1.016 NE 10,3 43,5 0,0
12-06-2020 20,2     23,5     27,0 6,8 33 49 63 1.003 1.005 1.009 NE 6,8 33,8 0,0
11-06-2020 17,4     23,0     27,9 10,5 35 66 90 1.002 1.007 1.013 NE 3,9 32,2 0,0
10-06-2020 16,3     20,2     23,8 7,5 59 73 82 1.013 1.015 1.017 NE 5,5 29,0 0,0
09-06-2020 15,1     19,3     23,4 8,3 45 69 87 1.015 1.016 1.017 NE 2,7 20,9 0,0
08-06-2020 14,8     17,8     20,7 5,9 67 80 91 1.011 1.013 1.016 NE 3,7 35,4 7,6
07-06-2020 18,4     22,4     26,9 8,5 45 75 91 1.004 1.007 1.011 NE 6,4 41,8 12,6
Últims 13 mesos disponibles
06/2020 14,8 18,8 22,1 22,8 20,7 27,3 31,6 16,8 42 68 84 1.004 1.014 1.021 NE 4,9 61,2 26,4
05/2020 12,8 16,9 21,4 21,0 19,5 25,4 30,5 17,7 43 63 82 1.005 1.016 1.026 NE 5,0 46,7 9,8
04/2020 9,4 12,7 18,2 15,4 13,7 19,0 26,5 17,1 47 75 95 1.006 1.016 1.026 E 5,7 69,2 75,6
03/2020 7,7 11,2 17,0 14,2 11,6 17,7 25,1 17,4 42 70 93 1.007 1.017 1.026 E 7,5 82,1 83,2
02/2020 7,2 11,0 15,4 15,2 13,9 19,8 26,0 18,8 30 67 87 1.014 1.025 1.033 E 3,4 53,1 4,8
01/2020 5,5 8,9 15,9 12,2 12,5 15,9 21,4 15,9 51 74 91 1.015 1.025 1.033 E 4,3 70,8 158,8
12/2019 7,1 11,3 16,8 14,2 13,1 17,6 23,9 16,8 47 70 90 1.005 1.019 1.033 E 5,1 75,6 195,2
11/2019 7,8 12,5 20,6 15,6 14,0 18,9 26,5 18,7 42 56 81 999 1.011 1.018 E 8,7 70,8 9,2
10/2019 11,4 16,7 20,1 20,3 16,3 24,3 29,8 18,4 45 69 86 1.008 1.016 1.022 E 3,7 82,1 113,0
09/2019 13,4 19,8 23,3 23,3 22,9 27,0 32,7 19,3 54 76 91 1.010 1.017 1.023 E 4,8 96,6 205,4
08/2019 19,3 22,3 25,9 26,2 25,8 30,6 36,8 17,5 47 69 82 1.010 1.015 1.019 E 5,4 51,5 71,6
07/2019 20,5 22,6 27,2 26,7 28,6 31,3 38,2 17,7 40 63 78 1.005 1.013 1.020 E 5,4 48,3 2,4
06/2019 13,8 18,1 22,7 22,4 20,4 26,6 34,9 21,1 38 63 81 1.008 1.015 1.022 E 7,0 57,9 1,0
Tots els anys disponibles
2019 4,1 14,9 27,2 18,5 11,3 22,5 38,2 34,1 33 65 94 996 1.016 1.034 E 5,6 96,6 1.026,4
2018 2,9 15,0 26,5 18,5 7,0 22,3 36,4 33,5 40 72 90 1.000 1.018 1.031 ENE 5,5 77,2 695,2
2017 -0,2 14,8 26,4 18,4 7,8 22,3 35,7 35,9 5,0 95,0 844,2
2016 4,2 15,1 27,9 18,5 11,8 22,3 39,2 35,0 5,5 74,0 563,0
2015 4,9 16,5 26,0 20,1 11,8 24,1 40,6 35,7 4,9 82,1 513,4
2014
Temperatura (°C)
Humitat relativa (%)
Velocitat del vent i ràfega màxima (km/h)
Direcció del vent (°)
Pressió (hPa)
Precipitació (mm)
Nota sobre les dades: s'avisa a l'usuari de la provisionalitat i no oficialitat d'aquestes dades
Logo AVAMET blanc
Web allotjada a Sollutia
Llicència de Creative CommonsLa web d'AVAMET i els seus continguts estan subjectes a una llicència de
Reconeixement - No Comercial - Compartir igual
Últimes estacions: Quesa - Hotel La Rocha (Soci), Agres - Les Eres (Soci), la Vilavella - Ptda Forns (Soci), Miramar - Platja (Inforatge), San Fulgencio - Centre & San Fulgencio - Urb. La Marina (MeteOrihuela), Ontinyent - els Gínjols (Soci), Orba (Ajuntament Soci), Xixona - Monnegre de Baix (Soci) - - -